Terminal Aerodrome Forecast
Issued by NWS

Home | Current Version | Previous Version | Text Only | Print | Product List | Glossary Off
Versions: 1 2 3 4 5 6 7 8 9 10 11 12 13 14 15 16 17 18 19 20 21 22 23 24 25 26 27 28 29 30 31 32 33

000
FTUS43 KLOT 310525
TAFMDW
TAF
KMDW 310525Z 3106/0106 02018G28KT 6SM -RA OVC015
     FM310900 02018G28KT P6SM BKN020 OVC040
     FM311400 03016G26KT P6SM SCT025 BKN040
     FM312100 02014G21KT P6SM BKN040
     FM010100 03011KT P6SM FEW040=

USA.gov is the U.S. government's official web portal to all federal, state and local government web resources and services.